Vineyard, Missouri
Current Conditions -  °F | °C
As of 9:15 PM on Monday 20 Oct 2014 (Local Time) from KHFJ Reporting Station
Clear Clear  
Wind Chill: 59°   Ceiling: Unl
Heat Index: 59°   Visibility: 10mi
Dew Point: 57°   Wind: 3mph
Humidity: 94%   Direction: 210°SSW
Pressure: 30.05"   Gusts: NA
Location:  37.1103°N, 93.9564°W
Report Text: KHFJ 210215Z AUTO 21003KT 10SM CLR 15/14 A3005 RMK AO2
Loading
Personal Weather Stations






























Interactive Weather Map
Tropical Storm Tracking
New forecast layout! Learn more

10-Day Weather Forecast

Advertisements
Track Severe Weather on mobile